Tiempo atmosférico en la estación meteorológica de Vilafranca Del Penedès, Barcelona (174 m.)



Fecha
DESCASC
Temp. máxima en grados centígrados (hora)
DESCASC
Temp. mínima en grados centígrados (hora)
DESCASC
Temp. media en grados centígrados
DESCASC
Racha de viento máxima en m/sg (hora)
DESCASC
Velocidad máxima media en intervalos de 10 minutos(hora)
DESCASC
Precipitaciones diarias en mm
DESCASC
Precipitaciones de 00:00 a 06:00 en mm
DESCASC
Precipitaciones de 06:00 a 12:00 en mm
DESCASC
Precipitaciones de 12:00 a 18:00 en mm
DESCASC
Precipitaciones de 18:00 a 24:00 en mm
DESCASC
05-08-2019 33.6 (15:20) 18.5 (00:00) 26 6.39 (14:10) 3.61 (14:00) 0 0 0 0 0
18-08-2019 30.4 (14:00) 21.1 (02:50) 25.8 7.5 (15:50) 3.33 (16:10) 0 0 0 0 0
17-08-2019 30 (14:20) 19.5 (07:10) 24.8 7.22 (15:40) 3.61 (18:40) 0 0 0 0 0
16-08-2019 29.7 (15:30) 20.9 (07:30) 25.3 8.06 (15:30) 3.61 (16:30) 0 0 0 0 0
15-08-2019 30.4 (15:30) 20.2 (00:00) 25.3 7.78 (18:30) 4.17 (18:30) 0 0 0 0 0
14-08-2019 28.5 (14:20) 16.6 (00:00) 22.6 7.5 (15:20) 3.33 (19:10) 0 0 0 0 0
13-08-2019 27.9 (15:20) 18.2 (00:00) 23.1 8.89 (19:40) 4.72 (20:00) 0 0 0 0 0
12-08-2019 29.4 (14:50) 20.4 (00:00) 24.9 7.22 (15:40) 3.33 (03:40) 20.2 20.2 0 0 0
11-08-2019 31.9 (13:40) 20.6 (00:00) 26.3 6.39 (22:00) 3.06 (13:30) 0 0 0 0 0
10-08-2019 32.8 (15:00) 22.8 (00:00) 27.8 7.78 (15:30) 3.33 (17:20) 0 0 0 0 0
09-08-2019 35.1 (14:40) 19.8 (00:00) 27.4 7.5 (16:30) 4.17 (16:00) 0 0 0 0 0
08-08-2019 32.6 (13:20) 22.7 (00:00) 27.6 7.5 (17:30) 3.61 (17:20) 0 0 0 0 0
07-08-2019 30.3 (12:00) 23.1 (00:00) 26.7 7.22 (14:40) 3.33 (14:00) 0 0 0 0 0
06-08-2019 32.8 (15:20) 19.6 (00:00) 26.2 7.22 (15:40) 2.5 (09:10) 0 0 0 0 0
22-07-2019 34.4 (14:40) 18.3 (00:00) 26.4 7.78 (17:40) 3.89 (15:20) 0 0 0 0 0
04-08-2019 31.3 (15:50) 18.9 (00:00) 25.1 8.06 (17:30) 3.61 (16:20) 0 0 0 0 0
03-08-2019 31.4 (14:20) 17.5 (00:00) 24.4 10.83 (14:40) 5.56 (15:40) 0 0 0 0 0
02-08-2019 32.8 (13:00) 17.8 (00:00) 25.3 7.78 (17:50) 3.06 (18:20) 0 0 0 0 0
01-08-2019 32.6 (16:10) 19.1 (00:00) 25.8 9.17 (16:50) 5.28 (17:00) 0 0 0 0 0
31-07-2019 27.5 (16:20) 20.7 (00:00) 24.1 8.33 (14:20) 3.61 (14:20) 0 0 0 0 0
30-07-2019 31.2 (14:30) 21.1 (00:00) 26.2 8.89 (16:00) 3.61 (15:20) 0 0 0 0 0
29-07-2019 29.8 (14:30) 16.7 (00:00) 23.3 7.78 (15:30) 3.61 (12:40) 0 0 0 0 0
28-07-2019 30.4 (15:40) 17.1 (00:00) 23.8 7.5 (18:10) 3.89 (18:30) 0 0 0 0 0
27-07-2019 28.8 (17:00) 19.3 (00:00) 24 8.33 (11:30) 4.72 (11:40) 39.2 0 28 11.2 0
26-07-2019 33.8 (15:20) 20.5 (00:00) 27.1 8.33 (16:10) 3.89 (16:10) 0 0 0 0 0
25-07-2019 33.9 (14:40) 18.1 (00:00) 26 6.67 (16:50) 3.61 (19:00) 0 0 0 0 0
24-07-2019 34.6 (15:10) 18 (00:00) 26.3 6.67 (14:50) 3.61 (14:30) 0 0 0 0 0
23-07-2019 35.7 (15:10) 17.8 (00:00) 26.8 8.61 (13:30) 4.17 (15:40) 0 0 0 0 0

Gráficas

Temp. máximas Temp. mínimas Temp. medias Precipitaciones Rachas de viento máximas Velocidades máximas media en intervalos de 10 minutos

Datos horarios

Fecha y hora oficial Temperatura (ºC) Velocidad del viento (km/h) Dirección del viento Racha (km/h) Dirección de racha Precipitación (mm) Presión (hPa) Tendencia (hPa) Humedad (%)
2019-08-20 23:00:00 -- -- -- -- -- -- -- -- --
2019-08-20 22:00:00 22.8 6 Sudeste 15 Sudeste 0 -- -- 77
2019-08-20 21:00:00 24 3 Oeste 8 Oeste 0 -- -- 61
2019-08-20 20:00:00 24.5 0 Calma 18 Noroeste 0 -- -- 56
2019-08-20 19:00:00 26.1 5 Norte 13 Norte 0 -- -- 50
2019-08-20 18:00:00 26 5 Norte 16 Oeste 0 -- -- 51
2019-08-20 17:00:00 24.8 4 Oeste 18 Norte 0 -- -- 55
2019-08-20 16:00:00 25.7 8 Norte 19 Norte 0 -- -- 59
2019-08-20 15:00:00 25.3 9 Norte 24 Norte 0 -- -- 60
2019-08-20 14:00:00 24.1 9 Norte 23 Norte 0 -- -- 64
2019-08-20 13:00:00 22.5 11 Norte 21 Oeste 0 -- -- 64
2019-08-20 12:00:00 24.3 5 Oeste 24 Noroeste 0 -- -- 64
2019-08-20 11:00:00 25 3 Norte 9 Norte 0 -- -- 61
2019-08-20 10:00:00 24.3 3 Norte 9 Norte 0 -- -- 62
2019-08-20 09:00:00 23.2 4 Norte 12 Norte 0 -- -- 65
2019-08-20 08:00:00 21.5 4 Norte 8 Norte 0 -- -- 74
2019-08-20 07:00:00 22.3 3 Nordeste 13 Nordeste 0 -- -- 69
2019-08-20 06:00:00 22.7 3 Norte 14 Nordeste 0 -- -- 68
2019-08-20 05:00:00 22.7 2 Nordeste 14 Norte 0 -- -- 69
2019-08-20 04:00:00 22.8 6 Nordeste 14 Nordeste 0 -- -- 72
2019-08-20 03:00:00 23.1 3 Nordeste 11 Norte 0 -- -- 74
2019-08-20 02:00:00 23 3 Este 13 Nordeste 0 -- -- 77
2019-08-20 01:00:00 23.4 3 Nordeste 12 Nordeste 0 -- -- 77
2019-08-20 00:00:00 23.6 4 Nordeste 16 Nordeste 0 -- -- 76
2019-08-19 23:00:00 23.7 3 Nordeste 10 Norte 0 -- -- 78
2019-08-19 22:00:00 23.8 3 Nordeste 21 Este 0 -- -- 79
2019-08-19 21:00:00 24.5 7 Este 18 Este 0 -- -- 75
2019-08-19 20:00:00 25.9 7 Este 18 Este 0 -- -- 68
2019-08-19 19:00:00 27.4 4 Sudeste 22 Este 0 -- -- 63
2019-08-19 18:00:00 28.1 12 Este 23 Sudeste 0 -- -- 61
2019-08-19 17:00:00 28.1 12 Sudeste 26 Este 0 -- -- 61
2019-08-19 16:00:00 29.4 11 Sudeste 30 Este 0 -- -- 59
2019-08-19 15:00:00 29.6 9 Sudeste 31 Este 0 -- -- 56
2019-08-19 14:00:00 30.2 14 Este 29 Sudeste 0 -- -- 57
2019-08-19 13:00:00 29.6 9 Este 26 Este 0 -- -- 60
2019-08-19 12:00:00 28.3 6 Este 17 Este 0 -- -- 65
2019-08-19 11:00:00 27 4 Nordeste 15 Norte 0 -- -- 73
2019-08-19 10:00:00 25.3 7 Norte 12 Norte 0 -- -- 81
2019-08-19 09:00:00 23.9 6 Norte 12 Norte 0 -- -- 88
2019-08-19 08:00:00 22.6 2 Nordeste 8 Nordeste 0 -- -- 93
2019-08-19 07:00:00 21.7 2 Nordeste 5 Norte 0 -- -- 95
2019-08-19 06:00:00 21.7 0 Calma 3 Norte 0 -- -- 96
2019-08-19 05:00:00 21.9 0 Calma 8 Norte 0 -- -- 95
2019-08-19 04:00:00 21.6 0 Calma 5 Este 0 -- -- 94
2019-08-19 03:00:00 22 0 Calma 5 Oeste 0 -- -- 93
2019-08-19 02:00:00 22.5 0 Calma 6 Noroeste 0 -- -- 92
2019-08-19 01:00:00 23 0 Calma 4 Sudeste 0 -- -- 91
2019-08-19 00:00:00 23.6 0 Calma 7 Este 0 -- -- 90
2019-08-18 23:00:00 24 2 Sudeste 5 Este 0 -- -- 88
2019-08-18 22:00:00 24.6 0 Calma 6 Sudoeste 0 -- -- 86
2019-08-18 21:00:00 25.7 2 Sudeste 12 Sur 0 -- -- 79
2019-08-18 20:00:00 26.9 4 Sudeste 17 Sudoeste 0 -- -- 75
2019-08-18 19:00:00 28.8 7 Sur 24 Sur 0 -- -- 68
2019-08-18 18:00:00 29.4 9 Sur 21 Sur 0 -- -- 65
2019-08-18 17:00:00 30 9 Sur 27 Sudoeste 0 -- -- 64
2019-08-18 16:00:00 30.3 11 Sur 27 Sudoeste 0 -- -- 63
2019-08-18 15:00:00 30.1 10 Sur 24 Sudoeste 0 -- -- 64
2019-08-18 14:00:00 30.4 8 Sur 19 Sur 0 -- -- 63
2019-08-18 13:00:00 29.7 9 Sudoeste 22 Sudoeste 0 -- -- 65
2019-08-18 12:00:00 28.8 10 Sudoeste 19 Sudoeste 0 -- -- 68
2019-08-18 11:00:00 27.5 6 Sur 15 Sudoeste 0 -- -- 72
2019-08-18 10:00:00 24.9 4 Oeste 6 Sudoeste 0 -- -- 85
2019-08-18 09:00:00 23.2 0 Calma 4 Noroeste 0 -- -- 86
2019-08-18 08:00:00 21.7 0 Calma 4 Noroeste 0 -- -- 92
2019-08-18 07:00:00 21.4 0 Calma 5 Norte 0 -- -- 93
2019-08-18 06:00:00 21.3 0 Calma 4 Este 0 -- -- 93
2019-08-18 05:00:00 21.1 0 Calma 4 Norte 0 -- -- 95
2019-08-18 04:00:00 21.1 0 Calma 7 Nordeste 0 -- -- 94
2019-08-18 03:00:00 21.1 0 Calma 5 Noroeste 0 -- -- 93
2019-08-18 02:00:00 21.3 0 Calma 4 Noroeste 0 -- -- 92
2019-08-18 01:00:00 21.9 0 Calma 5 Norte 0 -- -- 92
2019-08-18 00:00:00 22.7 0 Calma 5 Este 0 -- -- 91
2019-08-17 23:00:00 23.3 0 Calma 5 Sudeste 0 -- -- 89
2019-08-17 22:00:00 24 0 Calma 12 Sudoeste 0 -- -- 85
2019-08-17 21:00:00 25 5 Sudoeste 18 Sudoeste 0 -- -- 81
2019-08-17 20:00:00 26.4 9 Sudoeste 19 Sudoeste 0 -- -- 72
2019-08-17 19:00:00 27.4 12 Sudoeste 22 Sudoeste 0 -- -- 69
2019-08-17 18:00:00 27.8 9 Sur 22 Sudoeste 0 -- -- 70
2019-08-17 17:00:00 28.6 7 Sur 26 Sudoeste 0 -- -- 67
2019-08-17 16:00:00 29.5 11 Sur 26 Sur 0 -- -- 63
2019-08-17 15:00:00 29.9 11 Sur 26 Sudoeste 0 -- -- 62
2019-08-17 14:00:00 29.6 9 Sur 23 Sur 0 -- -- 63
2019-08-17 13:00:00 29.4 6 Sur 21 Sudoeste 0 -- -- 63
2019-08-17 12:00:00 28.7 8 Sudoeste 19 Sudoeste 0 -- -- 58
2019-08-17 11:00:00 27 9 Sudoeste 16 Sudoeste 0 -- -- 66
2019-08-17 10:00:00 24.4 3 Sur 6 Oeste 0 -- -- 87
2019-08-17 09:00:00 22 3 Norte 5 Norte 0 -- -- 87
2019-08-17 08:00:00 20.1 0 Calma 3 Norte 0 -- -- 95
2019-08-17 07:00:00 19.6 2 Norte 4 Noroeste 0 -- -- 94
2019-08-17 06:00:00 20.1 0 Calma 4 Nordeste 0 -- -- 94
2019-08-17 05:00:00 20.5 0 Calma 4 Norte 0 -- -- 93
2019-08-17 04:00:00 20.9 0 Calma 7 Noroeste 0 -- -- 92
2019-08-17 03:00:00 21.5 2 Norte 5 Norte 0 -- -- 93
2019-08-17 02:00:00 22.2 0 Calma 3 Noroeste 0 -- -- 92
2019-08-17 01:00:00 22.3 0 Calma 3 Sudeste 0 -- -- 93
2019-08-17 00:00:00 22.7 0 Calma 5 Este 0 -- -- 91
2019-08-16 23:00:00 23.2 2 Este 11 Sudoeste 0 -- -- 89
2019-08-16 22:00:00 23.9 6 Sudoeste 20 Sudoeste 0 -- -- 86
2019-08-16 21:00:00 24.7 13 Sudoeste 24 Sudoeste 0 -- -- 81
2019-08-16 20:00:00 26.6 9 Sur 24 Sudoeste 0 -- -- 69
2019-08-16 19:00:00 27.9 10 Sur 26 Sur 0 -- -- 57
2019-08-16 18:00:00 28.3 11 Sur 28 Sudoeste 0 -- -- 61
2019-08-16 17:00:00 28.9 11 Sur 25 Sudoeste 0 -- -- 62
2019-08-16 16:00:00 29.2 10 Sur 29 Sur 0 -- -- 61
2019-08-16 15:00:00 29.3 9 Sur 26 Sudoeste 0 -- -- 61
2019-08-16 14:00:00 28 6 Sur 24 Sudeste 0 -- -- 66
2019-08-16 13:00:00 26.2 13 Este 21 Este 0 -- -- 77
2019-08-16 12:00:00 26.1 8 Este 20 Sudeste 0 -- -- 76
2019-08-16 11:00:00 25.9 6 Este 15 Este 0 -- -- 76
2019-08-16 10:00:00 23.7 4 Nordeste 10 Norte 0 -- -- 82
2019-08-16 09:00:00 22.5 3 Norte 9 Norte 0 -- -- 83
2019-08-16 08:00:00 21.3 2 Noroeste 6 Nordeste 0 -- -- 87
2019-08-16 07:00:00 21.1 2 Norte 6 Norte 0 -- -- 86
2019-08-16 06:00:00 21.5 0 Calma 9 Norte 0 -- -- 84
2019-08-16 05:00:00 21.6 5 Norte 8 Norte 0 -- -- 84
2019-08-16 04:00:00 21.9 4 Norte 9 Norte 0 -- -- 86
2019-08-16 03:00:00 22.3 4 Norte 8 Norte 0 -- -- 86
2019-08-16 02:00:00 22.7 4 Norte 9 Norte 0 -- -- 84
2019-08-16 01:00:00 22.9 4 Noroeste 10 Norte 0 -- -- 85
2019-08-16 00:00:00 23.5 2 Este 5 Este 0 -- -- 85
2019-08-15 23:00:00 23.7 3 Sudeste 8 Sudeste 0 -- -- 84
2019-08-15 22:00:00 24.4 3 Sudeste 10 Sudeste 0 -- -- 81
2019-08-15 21:00:00 24.9 4 Sudeste 16 Sudoeste 0 -- -- 78
2019-08-15 20:00:00 26.3 6 Sur 24 Sudoeste 0 -- -- 75
2019-08-15 19:00:00 27.7 8 Sur 28 Sudoeste 0 -- -- 68
2019-08-15 18:00:00 28.9 7 Sur 24 Sudoeste 0 -- -- 63
2019-08-15 17:00:00 29 10 Sur 26 Sudoeste 0 -- -- 61
2019-08-15 16:00:00 29.7 12 Sudoeste 25 Sudoeste 0 -- -- 57
2019-08-15 15:00:00 29.7 9 Sur 22 Sudoeste 0 -- -- 53
2019-08-15 14:00:00 29.7 6 Sur 22 Sudoeste 0 -- -- 53
2019-08-15 13:00:00 29.4 8 Sur 20 Sudoeste 0 -- -- 58
2019-08-15 12:00:00 27.9 5 Noroeste 11 Sudoeste 0 -- -- 60
2019-08-15 11:00:00 26.4 3 Norte 8 Noroeste 0 -- -- 68
2019-08-15 10:00:00 23.7 5 Norte 11 Norte 0 -- -- 83
2019-08-15 09:00:00 21.7 5 Norte 10 Norte 0 -- -- 86
2019-08-15 08:00:00 20.8 2 Norte 5 Nordeste 0 -- -- 92
2019-08-15 07:00:00 20.3 0 Calma 5 Norte 0 -- -- 94
2019-08-15 06:00:00 20.2 0 Calma 4 Nordeste 0 -- -- 95
2019-08-15 05:00:00 20.6 0 Calma 5 Norte 0 -- -- 94
2019-08-15 04:00:00 20.9 0 Calma 6 Noroeste 0 -- -- 94
2019-08-15 03:00:00 20.9 3 Norte 5 Noroeste 0 -- -- 94
2019-08-15 02:00:00 21.1 0 Calma 4 Norte 0 -- -- 92
2019-08-15 01:00:00 21.8 0 Calma 3 Norte 0 -- -- 91
2019-08-15 00:00:00 22.4 0 Calma 6 Sudeste 0 -- -- 90
2019-08-14 23:00:00 22.8 2 Sudeste 5 Sudeste 0 -- -- 88
2019-08-14 22:00:00 23.5 3 Sudeste 8 Sur 0 -- -- 85
2019-08-14 21:00:00 24.6 3 Sur 15 Sudoeste 0 -- -- 77
2019-08-14 20:00:00 25.9 5 Sur 23 Sudoeste 0 -- -- 70
2019-08-14 19:00:00 27.1 8 Sur 21 Sur 0 -- -- 64
2019-08-14 18:00:00 27.7 9 Sur 23 Sudoeste 0 -- -- 57
2019-08-14 17:00:00 27.8 7 Sur 24 Sudoeste 0 -- -- 56
2019-08-14 16:00:00 27.8 6 Sur 27 Este 0 -- -- 42
2019-08-14 15:00:00 28.3 11 Sudeste 26 Sudeste 0 -- -- 50
2019-08-14 14:00:00 28.1 8 Sudoeste 17 Sudoeste 0 -- -- 48
2019-08-14 13:00:00 27.7 5 Sudeste 17 Sudoeste 0 -- -- 50
2019-08-14 12:00:00 26.2 5 Sur 15 Sudoeste 0 -- -- 44
2019-08-14 11:00:00 23.8 2 Sur 8 Nordeste 0 -- -- 53
2019-08-14 10:00:00 21.1 5 Nordeste 14 Nordeste 0 -- -- 55
2019-08-14 09:00:00 19.4 5 Norte 12 Nordeste 0 -- -- 60
2019-08-14 08:00:00 17.2 4 Nordeste 10 Norte 0 -- -- 77
2019-08-14 07:00:00 16.9 0 Calma 7 Noroeste 0 -- -- 89
2019-08-14 06:00:00 17.6 4 Nordeste 13 Nordeste 0 -- -- 88
2019-08-14 05:00:00 17.8 2 Sudeste 9 Norte 0 -- -- 90
2019-08-14 04:00:00 17.7 0 Calma 6 Norte 0 -- -- 89
2019-08-14 03:00:00 18.2 4 Norte 8 Norte 0 -- -- 89
2019-08-14 02:00:00 18.5 2 Norte 7 Norte 0 -- -- 89
2019-08-14 01:00:00 19.4 0 Calma 5 Norte 0 -- -- 88
2019-08-14 00:00:00 20.5 0 Calma 10 Oeste 0 -- -- 84
2019-08-13 23:00:00 21.8 8 Sudoeste 15 Sur 0 -- -- 78
2019-08-13 22:00:00 22.2 8 Sudoeste 17 Sudoeste 0 -- -- 76
2019-08-13 21:00:00 23 7 Sur 26 Sudoeste 0 -- -- 68
2019-08-13 20:00:00 24.3 17 Sudoeste 32 Sur 0 -- -- 61
2019-08-13 19:00:00 25.6 14 Sur 28 Sudoeste 0 -- -- 56
2019-08-13 18:00:00 26.4 14 Sur 28 Sudoeste 0 -- -- 50
2019-08-13 17:00:00 27 13 Sur 28 Sudoeste 0 -- -- 46
2019-08-13 16:00:00 27.8 10 Sur 29 Sudoeste 0 -- -- 43
2019-08-13 15:00:00 27.8 7 Sur 29 Sudoeste 0 -- -- 43
2019-08-13 14:00:00 26.3 11 Sur 24 Oeste 0 -- -- 44
2019-08-13 13:00:00 26.3 9 Sur 18 Sudoeste 0 -- -- 42
2019-08-13 12:00:00 24.2 2 Sudoeste 13 Nordeste 0 -- -- 46
2019-08-13 11:00:00 22.4 8 Nordeste 22 Norte 0 -- -- 50
2019-08-13 10:00:00 20 10 Nordeste 22 Nordeste 0 -- -- 58
2019-08-13 09:00:00 19.1 11 Nordeste 18 Nordeste 0 -- -- 61
2019-08-13 08:00:00 18.2 5 Norte 15 Norte 0 -- -- 63
2019-08-13 07:00:00 18.4 4 Norte 13 Nordeste 0 -- -- 62
2019-08-13 06:00:00 18.9 5 Norte 13 Nordeste 0 -- -- 62
2019-08-13 05:00:00 19.8 6 Norte 14 Nordeste 0 -- -- 63
2019-08-13 04:00:00 20.6 6 Nordeste 12 Norte 0 -- -- 64
2019-08-13 03:00:00 20.8 5 Norte 9 Nordeste 0 -- -- 86
2019-08-13 02:00:00 20.8 3 Norte 4 Nordeste 0 -- -- 87
2019-08-13 01:00:00 21.2 2 Sur 5 Sudoeste 0 -- -- 85
2019-08-13 00:00:00 22.1 0 Calma 10 Sudeste 0 -- -- 79
2019-08-12 23:00:00 22.3 4 Sudeste 9 Este 0 -- -- 78
2019-08-12 22:00:00 22.8 3 Sudeste 8 Sur 0 -- -- 77
2019-08-12 21:00:00 24 2 Sur 13 Sudoeste 0 -- -- 72
2019-08-12 20:00:00 25.4 5 Sudeste 20 Sudeste 0 -- -- 65
2019-08-12 19:00:00 27.1 6 Sudeste 19 Sudeste 0 -- -- 55
2019-08-12 18:00:00 28.2 5 Sur 18 Este 0 -- -- 50
2019-08-12 17:00:00 28.7 6 Sur 18 Sudeste 0 -- -- 49
2019-08-12 16:00:00 28.9 9 Sur 26 Sudoeste 0 -- -- 51
2019-08-12 15:00:00 29.2 9 Sudoeste 21 Sudoeste 0 -- -- 43
2019-08-12 14:00:00 28.3 5 Sur 17 Sudoeste 0 -- -- 49
2019-08-12 13:00:00 26.3 6 Sudoeste 10 Oeste 0 -- -- 60
2019-08-12 12:00:00 24.8 3 Norte 11 Noroeste 0 -- -- 65
2019-08-12 11:00:00 23.4 4 Norte 13 Norte 0 -- -- 71
2019-08-12 10:00:00 22.8 4 Noroeste 9 Oeste 0 -- -- 80
2019-08-12 09:00:00 21.9 0 Calma 8 Nordeste 0 -- -- 89
2019-08-12 08:00:00 20.6 4 Norte 11 Norte 0 -- -- 94
2019-08-12 07:00:00 20.5 5 Norte 12 Norte 0 -- -- 95
2019-08-12 06:00:00 20.5 7 Nordeste 14 Nordeste 3.6 -- -- 96
2019-08-12 05:00:00 21 3 Este 13 Norte 2.2 -- -- 95
2019-08-12 04:00:00 21 5 Noroeste 26 Norte 14.4 -- -- 92
2019-08-12 03:00:00 24.4 6 Nordeste 14 Nordeste 0 -- -- 72
2019-08-12 02:00:00 24.2 3 Nordeste 12 Este 0 -- -- 73
2019-08-12 01:00:00 24.8 2 Nordeste 13 Nordeste 0 -- -- 71
2019-08-12 00:00:00 25.1 3 Nordeste 15 Este 0 -- -- 70
2019-08-11 23:00:00 25.9 3 Este 18 Este 0 -- -- 80
2019-08-11 22:00:00 26.2 8 Este 23 Este 0 -- -- 80
2019-08-11 21:00:00 27.2 2 Sur 10 Sudoeste 0 -- -- 71
2019-08-11 20:00:00 28.2 6 Sudoeste 15 Sudoeste 0 -- -- 69
2019-08-11 19:00:00 29 6 Sur 17 Sudoeste 0 -- -- 65
2019-08-11 18:00:00 30.7 8 Sudoeste 21 Sur 0 -- -- 59
2019-08-11 17:00:00 31.2 8 Sudoeste 20 Sur 0 -- -- 57
2019-08-11 16:00:00 31 7 Sur 21 Sudoeste 0 -- -- 55
2019-08-11 15:00:00 31.2 8 Sudeste 20 Este 0 -- -- 52
2019-08-11 14:00:00 31.7 7 Sudeste 20 Sudeste 0 -- -- 49
2019-08-11 13:00:00 30.5 6 Sudoeste 14 Sudoeste 0 -- -- 53
2019-08-11 12:00:00 28.7 5 Sudoeste 13 Sudoeste 0 -- -- 59
2019-08-11 11:00:00 26.9 2 Sur 12 Sudoeste 0 -- -- 68
2019-08-11 10:00:00 25.3 4 Sur 13 Sudoeste 0 -- -- 77
2019-08-11 09:00:00 22.9 0 Calma 5 Sudoeste 0 -- -- 86
2019-08-11 08:00:00 21 0 Calma 3 Sur 0 -- -- 88
2019-08-11 07:00:00 20.6 0 Calma 3 Noroeste 0 -- -- 90
2019-08-11 06:00:00 21.1 0 Calma 2 Nordeste 0 -- -- 91
2019-08-11 05:00:00 21.5 0 Calma 3 Noroeste 0 -- -- 90
2019-08-11 04:00:00 22.1 2 Norte 4 Norte 0 -- -- 88
2019-08-11 03:00:00 23.1 0 Calma 8 Nordeste 0 -- -- 85
2019-08-11 02:00:00 23.5 4 Nordeste 8 Norte 0 -- -- 84
2019-08-11 01:00:00 23.4 0 Calma 6 Norte 0 -- -- 84
2019-08-11 00:00:00 24 2 Noroeste 5 Norte 0 -- -- 83
2019-08-10 23:00:00 24.5 0 Calma 11 Este 0 -- -- 80
2019-08-10 22:00:00 24.8 3 Sudeste 13 Este 0 -- -- 80
2019-08-10 21:00:00 25.9 8 Sudeste 17 Este 0 -- -- 75
2019-08-10 20:00:00 28.1 8 Sudeste 21 Este 0 -- -- 66
2019-08-10 19:00:00 29.7 9 Sudeste 19 Sudeste 0 -- -- 60
2019-08-10 18:00:00 31 7 Sudeste 25 Sudeste 0 -- -- 54
2019-08-10 17:00:00 31.7 8 Sudeste 24 Este 0 -- -- 53
2019-08-10 16:00:00 32.5 10 Sudeste 28 Sudeste 0 -- -- 51
2019-08-10 15:00:00 32.8 8 Sudeste 24 Este 0 -- -- 49
2019-08-10 14:00:00 32.5 6 Sur 21 Este 0 -- -- 54
2019-08-10 13:00:00 31 7 Sur 19 Sudeste 0 -- -- 59
2019-08-10 12:00:00 31.9 4 Sur 15 Este 0 -- -- 59
2019-08-10 11:00:00 30 4 Sudeste 12 Sudoeste 0 -- -- 56
2019-08-10 10:00:00 27.3 4 Sudoeste 8 Sudoeste 0 -- -- 67
2019-08-10 09:00:00 25 2 Noroeste 8 Noroeste 0 -- -- 83
2019-08-10 08:00:00 23.8 0 Calma 11 Nordeste 0 -- -- 88
2019-08-10 07:00:00 23.4 2 Este 15 Nordeste 0 -- -- 87
2019-08-10 06:00:00 23.5 7 Nordeste 14 Nordeste 0 -- -- 87
2019-08-10 05:00:00 23.2 3 Norte 9 Nordeste 0 -- -- 74
2019-08-10 04:00:00 23 0 Calma 6 Norte 0 -- -- 83
2019-08-10 03:00:00 23.6 2 Este 8 Nordeste 0 -- -- 81
2019-08-10 02:00:00 23.8 3 Noroeste 6 Noroeste 0 -- -- 90
2019-08-10 01:00:00 24.7 2 Norte 5 Este 0 -- -- 89
2019-08-10 00:00:00 25.2 0 Calma 6 Sur 0 -- -- 87
2019-08-09 23:00:00 26 2 Sur 9 Sudoeste 0 -- -- 84
2019-08-09 22:00:00 26.9 0 Calma 9 Sur 0 -- -- 80
2019-08-09 21:00:00 28.2 3 Sur 16 Sudoeste 0 -- -- 78
2019-08-09 20:00:00 30.1 9 Sudoeste 23 Sudoeste 0 -- -- 70
2019-08-09 19:00:00 32.6 6 Sur 18 Sudoeste 0 -- -- 55
2019-08-09 18:00:00 33.2 6 Sur 22 Sudoeste 0 -- -- 51
2019-08-09 17:00:00 33.2 9 Sur 27 Sudoeste 0 -- -- 52
2019-08-09 16:00:00 33.5 15 Sudoeste 26 Sudoeste 0 -- -- 54
2019-08-09 15:00:00 34.9 9 Sur 24 Sudoeste 0 -- -- 49
2019-08-09 14:00:00 34.4 9 Sudoeste 18 Sudoeste 0 -- -- 51
2019-08-09 13:00:00 32.9 10 Sudoeste 19 Sudoeste 0 -- -- 56
2019-08-09 12:00:00 32 7 Oeste 16 Sudoeste 0 -- -- 55
2019-08-09 11:00:00 29.6 5 Sudoeste 11 Sudoeste 0 -- -- 55
2019-08-09 10:00:00 25.9 3 Oeste 8 Sudoeste 0 -- -- 78
2019-08-09 09:00:00 23 2 Noroeste 4 Norte 0 -- -- 79
2019-08-09 08:00:00 20.3 0 Calma 3 Noroeste 0 -- -- 81
2019-08-09 07:00:00 19.9 0 Calma 4 Norte 0 -- -- 84
2019-08-09 06:00:00 20.6 0 Calma 3 Noroeste 0 -- -- 84
2019-08-09 05:00:00 21 0 Calma 3 Sur 0 -- -- 84
2019-08-09 04:00:00 21.7 0 Calma 5 Norte 0 -- -- 82
2019-08-09 03:00:00 22.9 0 Calma 4 Norte 0 -- -- 80
2019-08-09 02:00:00 23.7 3 Norte 12 Sudoeste 0 -- -- 77
2019-08-09 01:00:00 25.4 5 Sudoeste 13 Sudoeste 0 -- -- 65
2019-08-09 00:00:00 25.6 3 Sur 10 Sudoeste 0 -- -- 68
2019-08-08 23:00:00 26.1 5 Sudoeste 11 Sudoeste 0 -- -- 74
2019-08-08 22:00:00 26.8 4 Sudoeste 11 Sur 0 -- -- 66
2019-08-08 21:00:00 28.3 4 Sur 14 Sudoeste 0 -- -- 55
2019-08-08 20:00:00 30.3 5 Sur 21 Sudoeste 0 -- -- 50
2019-08-08 19:00:00 30.8 5 Sur 24 Sudoeste 0 -- -- 50
2019-08-08 18:00:00 30.9 10 Sur 27 Sudoeste 0 -- -- 61
2019-08-08 17:00:00 31.5 8 Sur 24 Sudoeste 0 -- -- 60
2019-08-08 16:00:00 31.9 6 Sur 22 Sudoeste 0 -- -- 58
2019-08-08 15:00:00 32 8 Sur 20 Sur 0 -- -- 59
2019-08-08 14:00:00 32.1 9 Sur 22 Sur 0 -- -- 61
2019-08-08 13:00:00 32.5 6 Sur 17 Sudoeste 0 -- -- 58
2019-08-08 12:00:00 31.2 5 Sur 17 Sudoeste 0 -- -- 58
2019-08-08 11:00:00 29.5 7 Sudoeste 14 Sudoeste 0 -- -- 65
2019-08-08 10:00:00 26.8 2 Sur 5 Oeste 0 -- -- 78
2019-08-08 09:00:00 24.5 3 Sur 9 Norte 0 -- -- 90
2019-08-08 08:00:00 23.1 0 Calma 4 Noroeste 0 -- -- 92
2019-08-08 07:00:00 22.8 0 Calma 0 Calma 0 -- -- 93
2019-08-08 06:00:00 23.2 0 Calma 5 Norte 0 -- -- 93
2019-08-08 05:00:00 24.1 0 Calma 7 Sudoeste 0 -- -- 93
2019-08-08 04:00:00 24.3 5 Sudoeste 13 Sudoeste 0 -- -- 91
2019-08-08 03:00:00 24 0 Calma 4 Sudeste 0 -- -- 91
2019-08-08 02:00:00 24.1 0 Calma 9 Sur 0 -- -- 89
2019-08-08 01:00:00 23.8 0 Calma 0 Calma 0 -- -- 89
2019-08-08 00:00:00 23.9 0 Calma 5 Sudoeste 0 -- -- 88
2019-08-07 23:00:00 24.3 0 Calma 13 Este 0 -- -- 88
2019-08-07 22:00:00 24.8 2 Sur 13 Este 0 -- -- 85
2019-08-07 21:00:00 25.7 4 Sudeste 22 Sudeste 0 -- -- 82
2019-08-07 20:00:00 26.7 5 Sudeste 13 Sudoeste 0 -- -- 79
2019-08-07 19:00:00 28.1 5 Sudeste 16 Sudeste 0 -- -- 73
2019-08-07 18:00:00 28.8 5 Sudeste 15 Sur 0 -- -- 70
2019-08-07 17:00:00 29.3 7 Sudeste 18 Este 0 -- -- 66
2019-08-07 16:00:00 28.6 5 Sudeste 22 Sudeste 0 -- -- 69
2019-08-07 15:00:00 28.6 9 Sudeste 26 Sudeste 0 -- -- 71
2019-08-07 14:00:00 29.6 12 Sudeste 24 Este 0 -- -- 66
2019-08-07 13:00:00 29.2 10 Sudeste 22 Este 0 -- -- 70
2019-08-07 12:00:00 30.3 8 Sudeste 16 Este 0 -- -- 65
2019-08-07 11:00:00 28.1 3 Sudeste 10 Norte 0 -- -- 71
2019-08-07 10:00:00 26.1 4 Norte 9 Norte 0 -- -- 80
2019-08-07 09:00:00 24.9 0 Calma 2 Noroeste 0 -- -- 87
2019-08-07 08:00:00 23.9 0 Calma 0 Calma 0 -- -- 90
2019-08-07 07:00:00 24 0 Calma 2 Noroeste 0 -- -- 88
2019-08-07 06:00:00 23.8 0 Calma 7 Noroeste 0 -- -- 87
2019-08-07 05:00:00 23.7 0 Calma 7 Noroeste 0 -- -- 87
2019-08-07 04:00:00 24 2 Norte 4 Noroeste 0 -- -- 86
2019-08-07 03:00:00 24 3 Norte 5 Norte 0 -- -- 86
2019-08-07 02:00:00 23.7 0 Calma 4 Sudeste 0 -- -- 86
2019-08-07 01:00:00 23.1 0 Calma 5 Sudoeste 0 -- -- 89
2019-08-07 00:00:00 23.9 0 Calma 5 Este 0 -- -- 87
2019-08-06 23:00:00 24.6 0 Calma 3 Sudeste 0 -- -- 85
2019-08-06 22:00:00 25.3 2 Sur 6 Sudoeste 0 -- -- 81
2019-08-06 21:00:00 26.5 0 Calma 11 Sudoeste 0 -- -- 77
2019-08-06 20:00:00 27.9 5 Sur 13 Sur 0 -- -- 71
2019-08-06 19:00:00 28.7 6 Sur 15 Sudoeste 0 -- -- 66
2019-08-06 18:00:00 30.7 9 Sudoeste 19 Sudoeste 0 -- -- 60
2019-08-06 17:00:00 30.8 8 Sudoeste 20 Sudoeste 0 -- -- 61
2019-08-06 16:00:00 32.5 5 Sudeste 26 Oeste 0 -- -- 54
2019-08-06 15:00:00 32.3 6 Este 17 Este 0 -- -- 47
2019-08-06 14:00:00 31.6 5 Sur 19 Sudeste 0 -- -- 49
2019-08-06 13:00:00 30.6 4 Sur 26 Sudeste 0 -- -- 52
2019-08-06 12:00:00 29.7 4 Nordeste 17 Oeste 0 -- -- 61
2019-08-06 11:00:00 28 3 Norte 9 Nordeste 0 -- -- 60
2019-08-06 10:00:00 25.5 6 Nordeste 16 Nordeste 0 -- -- 67
2019-08-06 09:00:00 23.5 6 Norte 14 Norte 0 -- -- 68
2019-08-06 08:00:00 21.6 5 Nordeste 12 Norte 0 -- -- 78
2019-08-06 07:00:00 19.7 0 Calma 0 Calma 0 -- -- 83
2019-08-06 06:00:00 19.6 0 Calma 0 Calma 0 -- -- 79
2019-08-06 05:00:00 19.9 0 Calma 4 Norte 0 -- -- 73
2019-08-06 04:00:00 20.5 0 Calma 5 Norte 0 -- -- 73
2019-08-06 03:00:00 21.2 0 Calma 5 Oeste 0 -- -- 69
2019-08-06 02:00:00 21.8 0 Calma 5 Noroeste 0 -- -- 77
2019-08-06 01:00:00 22.5 0 Calma 3 Noroeste 0 -- -- 75
2019-08-06 00:00:00 23.5 0 Calma 5 Noroeste 0 -- -- 76
2019-08-05 23:00:00 24.9 0 Calma 4 Noroeste 0 -- -- 74
2019-08-05 22:00:00 26 0 Calma 14 Este 0 -- -- 57
2019-08-05 21:00:00 28.5 6 Sudeste 14 Este 0 -- -- 52
2019-08-05 20:00:00 31 3 Este 13 Este 0 -- -- 36
2019-08-05 19:00:00 31.8 4 Sudeste 15 Sudoeste 0 -- -- 37
2019-08-05 18:00:00 32.4 5 Sur 17 Sur 0 -- -- 36
2019-08-05 17:00:00 32.9 6 Sur 19 Sudeste 0 -- -- 38
2019-08-05 16:00:00 33.5 6 Sur 16 Este 0 -- -- 35
2019-08-05 15:00:00 33.2 6 Sur 23 Sudoeste -- -- -- 37
2019-08-05 14:00:00 32.8 13 Sudoeste 21 Sudoeste 0 -- -- 35
2019-08-05 13:00:00 32.9 7 Sur 16 Sudoeste 0 -- -- 34
2019-08-05 12:00:00 31.2 6 Sudoeste 11 Sudoeste 0 -- -- 41
2019-08-05 11:00:00 28.8 0 Calma 0 Calma 0 -- -- 40
2019-08-05 10:00:00 25.7 0 Calma 0 Calma 0 -- -- 52
2019-08-05 09:00:00 22.7 0 Calma 2 Nordeste 0 -- -- 62
2019-08-05 08:00:00 19.4 0 Calma 0 Calma 0 -- -- 78
2019-08-05 07:00:00 18.5 0 Calma 0 Calma 0 -- -- 81
2019-08-05 06:00:00 18.8 0 Calma 0 Calma 0 -- -- 76
2019-08-05 05:00:00 18.9 0 Calma 0 Calma 0 -- -- 73
2019-08-05 04:00:00 19.5 0 Calma 0 Calma 0 -- -- 75
2019-08-05 03:00:00 20.2 0 Calma 0 Calma 0 -- -- 74
2019-08-05 02:00:00 21 0 Calma 0 Calma 0 -- -- 77
2019-08-05 01:00:00 22 0 Calma -- -- 0 -- -- 74
2019-08-05 00:00:00 22.8 0 Calma 2 Este 0 -- -- 61
2019-08-04 23:00:00 24.1 0 Calma 8 Sudoeste 0 -- -- 59
2019-08-04 22:00:00 25.5 0 Calma 3 Sudoeste 0 -- -- 54
2019-08-04 21:00:00 27.5 0 Calma 10 Sudoeste 0 -- -- 44
2019-08-04 20:00:00 28.7 5 Sur 19 Sudoeste 0 -- -- 43
2019-08-04 19:00:00 29.6 8 Sudoeste 20 Sur 0 -- -- 45
2019-08-04 18:00:00 30.2 10 Sur 29 Sudoeste 0 -- -- 40
2019-08-04 17:00:00 30.5 10 Sur 26 Sur 0 -- -- 44
2019-08-04 16:00:00 31.1 12 Sudoeste 26 Sudoeste 0 -- -- 44
2019-08-04 15:00:00 30.7 13 Sudoeste 24 Sudoeste 0 -- -- 51
2019-08-04 14:00:00 30.6 11 Sudoeste 22 Sudoeste 0 -- -- 55
2019-08-04 13:00:00 30.7 7 Sur 20 Sudoeste 0 -- -- 56
2019-08-04 12:00:00 30.1 9 Sudoeste 17 Sudoeste 0 -- -- 53
2019-08-04 11:00:00 28.7 5 Sur 11 Sudoeste 0 -- -- 46
2019-08-04 10:00:00 25.1 4 Este 8 Sudeste 0 -- -- 67
2019-08-04 09:00:00 22 0 Calma 0 Calma 0 -- -- 78
2019-08-04 08:00:00 19.9 0 Calma -- -- 0 -- -- 89
2019-08-04 07:00:00 18.9 0 Calma -- -- 0 -- -- 90
2019-08-04 06:00:00 19 0 Calma -- -- 0 -- -- 88
2019-08-04 05:00:00 19.3 0 Calma 0 Calma 0 -- -- 86
2019-08-04 04:00:00 19.8 0 Calma 0 Calma 0 -- -- 84
2019-08-04 03:00:00 20.6 0 Calma 0 Calma 0 -- -- 85
2019-08-04 02:00:00 21.3 0 Calma 0 Calma 0 -- -- 84
2019-08-04 01:00:00 22.3 0 Calma 0 Calma 0 -- -- 84
2019-08-04 00:00:00 23.1 0 Calma 0 Calma 0 -- -- 80
2019-08-03 23:00:00 24.1 0 Calma 12 Sur 0 -- -- 77
2019-08-03 22:00:00 24.7 4 Sur 14 Sudoeste 0 -- -- 72
2019-08-03 21:00:00 25.8 5 Sur 21 Sudoeste 0 -- -- 64
2019-08-03 20:00:00 27.2 9 Sudoeste 30 Sudoeste 0 -- -- 52
2019-08-03 19:00:00 29.1 14 Sudoeste 30 Sudoeste 0 -- -- 46
2019-08-03 18:00:00 30.2 12 Sur 31 Sudoeste 0 -- -- 40
2019-08-03 17:00:00 30.7 14 Sur 32 Sur 0 -- -- 35
2019-08-03 16:00:00 31 15 Sudoeste 36 Sudoeste 0 -- -- 36
2019-08-03 15:00:00 31.1 12 Sur 39 Sudoeste 0 -- -- 39
2019-08-03 14:00:00 30.9 15 Sudoeste 32 Sudoeste 0 -- -- 38
2019-08-03 13:00:00 30.8 10 Sur 28 Sudoeste 0 -- -- 44
2019-08-03 12:00:00 30.4 10 Sudoeste 23 Sudoeste 0 -- -- 40
2019-08-03 11:00:00 29 8 Sudoeste 14 Sur 0 -- -- 39
2019-08-03 10:00:00 25.7 0 Calma 0 Calma 0 -- -- 48
2019-08-03 09:00:00 22.1 0 Calma 0 Calma 0 -- -- 69
2019-08-03 08:00:00 18.6 0 Calma 0 Calma 0 -- -- 82
2019-08-03 07:00:00 17.5 0 Calma 0 Calma 0 -- -- 83
2019-08-03 06:00:00 17.8 0 Calma 0 Calma 0 -- -- 84
2019-08-03 05:00:00 18.4 0 Calma 0 Calma 0 -- -- 80
2019-08-03 04:00:00 19.1 0 Calma 0 Calma 0 -- -- 83
2019-08-03 03:00:00 19.6 0 Calma 0 Calma 0 -- -- 78
2019-08-03 02:00:00 20 0 Calma 6 Norte 0 -- -- 77
2019-08-03 01:00:00 20.9 0 Calma 0 Calma 0 -- -- 79
2019-08-03 00:00:00 21.9 0 Calma 0 Calma 0 -- -- 74
2019-08-02 23:00:00 23 0 Calma 4 Sur 0 -- -- 73
2019-08-02 22:00:00 24.1 0 Calma 15 Sudoeste 0 -- -- 66
2019-08-02 21:00:00 25.5 8 Sudoeste 18 Sudoeste 0 -- -- 59
2019-08-02 20:00:00 27.5 8 Sudoeste 18 Sudoeste 0 -- -- 51
2019-08-02 19:00:00 28.7 9 Sur 23 Sur 0 -- -- 47
2019-08-02 18:00:00 29.4 10 Sur 28 Sudoeste 0 -- -- 44
2019-08-02 17:00:00 30.1 8 Sur 21 Sur 0 -- -- 38
2019-08-02 16:00:00 30.9 8 Sur 21 Sudeste 0 -- -- 36
2019-08-02 15:00:00 32 8 Sudeste 19 Sur 0 -- -- 33
2019-08-02 14:00:00 32.1 9 Sur 24 Sudoeste 0 -- -- 33
2019-08-02 13:00:00 32.8 7 Sur 17 Sur 0 -- -- 33
2019-08-02 12:00:00 30.8 6 Sur 14 Sudoeste 0 -- -- 36
2019-08-02 11:00:00 28.6 4 Sur 10 Sudoeste 0 -- -- 38
2019-08-02 10:00:00 25 3 Norte 6 Norte 0 -- -- 51
2019-08-02 09:00:00 21.4 2 Este 7 Este 0 -- -- 58
2019-08-02 08:00:00 18.9 0 Calma 0 Calma 0 -- -- 73
2019-08-02 07:00:00 17.8 0 Calma 0 Calma 0 -- -- 76
2019-08-02 06:00:00 18.4 0 Calma 0 Calma 0 -- -- 77
2019-08-02 05:00:00 19 0 Calma 0 Calma 0 -- -- 72
2019-08-02 04:00:00 19.6 0 Calma 0 Calma 0 -- -- 68
2019-08-02 03:00:00 19.8 2 Nordeste 6 Norte 0 -- -- 64
2019-08-02 02:00:00 20 0 Calma 6 Oeste 0 -- -- 67
2019-08-02 01:00:00 20.6 0 Calma 5 Noroeste 0 -- -- 63
2019-08-02 00:00:00 21.4 0 Calma 4 Noroeste 0 -- -- 63
2019-08-01 23:00:00 22.6 0 Calma 4 Sudoeste 0 -- -- 51
2019-08-01 22:00:00 24.3 0 Calma 6 Sudeste 0 -- -- 47
2019-08-01 21:00:00 26.5 3 Sudeste 9 Este 0 -- -- 42
2019-08-01 20:00:00 28 4 Este 14 Este 0 -- -- 42
2019-08-01 19:00:00 28.2 5 Sudeste 18 Este 0 -- -- 41
2019-08-01 18:00:00 29.3 9 Sudeste 33 Sudeste 0 -- -- 36
2019-08-01 17:00:00 30.2 19 Sudeste 33 Sudeste 0 -- -- 35
2019-08-01 16:00:00 32.5 7 Este 18 Norte 0 -- -- 29
2019-08-01 15:00:00 32 8 Nordeste 18 Este 0 -- -- 31
2019-08-01 14:00:00 31 4 Norte 18 Este 0 -- -- 31
2019-08-01 13:00:00 30.1 4 Nordeste 23 Este 0 -- -- 36
2019-08-01 12:00:00 27.6 6 Noroeste 10 Norte 0 -- -- 50
2019-08-01 11:00:00 26.3 5 Oeste 11 Oeste 0 -- -- 54
2019-08-01 10:00:00 24.1 4 Noroeste 7 Norte 0 -- -- 64
2019-08-01 09:00:00 21.7 2 Noroeste 7 Nordeste 0 -- -- 78
2019-08-01 08:00:00 19.9 2 Norte 8 Norte 0 -- -- 85
2019-08-01 07:00:00 19.4 2 Norte 15 Nordeste 0 -- -- 87
2019-08-01 06:00:00 19.3 0 Calma 12 Nordeste 0 -- -- 88
2019-08-01 05:00:00 20 6 Nordeste 11 Nordeste 0 -- -- 86
2019-08-01 04:00:00 19.4 2 Norte 8 Norte 0 -- -- 89
2019-08-01 03:00:00 19.4 3 Sudeste 6 Este 0 -- -- 89
2019-08-01 02:00:00 20.3 0 Calma 9 Norte 0 -- -- 86
2019-08-01 01:00:00 20.9 4 Norte 7 Norte 0 -- -- 85
2019-08-01 00:00:00 21.3 0 Calma 5 Este 0 -- -- 81
2019-07-31 23:00:00 21.9 2 Sur 9 Este 0 -- -- 79
2019-07-31 22:00:00 22.4 0 Calma 10 Este 0 -- -- 76
2019-07-31 21:00:00 23.6 5 Sudeste 16 Sudeste 0 -- -- 72
2019-07-31 20:00:00 25.5 8 Sudeste 18 Sudeste 0 -- -- 66
2019-07-31 19:00:00 26.6 4 Sur 15 Sudeste 0 -- -- 62
2019-07-31 18:00:00 26.9 5 Sur 23 Sudoeste 0 -- -- 61
2019-07-31 17:00:00 27.4 5 Sur 19 Sudoeste 0 -- -- 59
2019-07-31 16:00:00 27.1 6 Sur 22 Este 0 -- -- 60
2019-07-31 15:00:00 26.3 8 Sudeste 30 Este 0 -- -- 63
2019-07-31 14:00:00 27.2 6 Sudeste 28 Sudeste 0 -- -- 61
2019-07-31 13:00:00 24.9 8 Sudeste 22 Sudeste 0 -- -- 68
2019-07-31 12:00:00 26.3 4 Sur 13 Norte 0 -- -- 60
2019-07-31 11:00:00 24.4 6 Norte 14 Norte 0 -- -- 57
2019-07-31 10:00:00 22.8 5 Norte 14 Norte 0 -- -- 57
2019-07-31 09:00:00 21.7 8 Norte 14 Norte 0 -- -- 58
2019-07-31 08:00:00 20.7 3 Norte 11 Nordeste 0 -- -- 74
2019-07-31 07:00:00 21.9 7 Nordeste 15 Nordeste 0 -- -- 72
2019-07-31 06:00:00 22.8 2 Noroeste 3 Noroeste 0 -- -- 84
2019-07-31 05:00:00 22.7 0 Calma 4 Noroeste 0 -- -- 83
2019-07-31 04:00:00 22.3 0 Calma 3 Este 0 -- -- 85
2019-07-31 03:00:00 22.9 2 Este 6 Este 0 -- -- 81
2019-07-31 02:00:00 23.3 2 Sudoeste 12 Este 0 -- -- 81
2019-07-31 01:00:00 23.4 8 Sudeste 18 Sudeste 0 -- -- 81
2019-07-31 00:00:00 23.6 8 Sudeste 18 Sudeste 0 -- -- 81
2019-07-30 23:00:00 23.5 6 Sudeste 16 Este 0 -- -- 83
2019-07-30 22:00:00 23.7 7 Sudeste 17 Sudeste 0 -- -- 81
2019-07-30 21:00:00 24.5 6 Sudeste 20 Sudeste 0 -- -- 77
2019-07-30 20:00:00 25.4 8 Sudeste 24 Sudeste 0 -- -- 74
2019-07-30 19:00:00 26.5 7 Sudeste 26 Este 0 -- -- 71
2019-07-30 18:00:00 27.9 12 Sudeste 26 Este 0 -- -- 66
2019-07-30 17:00:00 29.3 8 Sudeste 31 Este 0 -- -- 57
2019-07-30 16:00:00 30.3 12 Sudeste 32 Este 0 -- -- 52
2019-07-30 15:00:00 30.8 8 Sudeste 23 Sudeste 0 -- -- 48
2019-07-30 14:00:00 30.4 6 Sur 20 Sudoeste 0 -- -- 48
2019-07-30 13:00:00 28 9 Sudoeste 24 Sudoeste 0 -- -- 61
2019-07-30 12:00:00 26.9 3 Sudoeste 10 Noroeste 0 -- -- 68
2019-07-30 11:00:00 25.3 2 Oeste 10 Nordeste 0 -- -- 77
2019-07-30 10:00:00 24.6 4 Norte 8 Nordeste 0 -- -- 83
2019-07-30 09:00:00 22.9 4 Norte 11 Noroeste 0 -- -- 86
2019-07-30 08:00:00 21.7 0 Calma 4 Este 0 -- -- 93
2019-07-30 07:00:00 21.1 0 Calma 4 Noroeste 0 -- -- 93
2019-07-30 06:00:00 21.4 0 Calma 7 Noroeste 0 -- -- 92
2019-07-30 05:00:00 22 0 Calma 5 Norte 0 -- -- 91
2019-07-30 04:00:00 22.4 3 Norte 7 Noroeste 0 -- -- 91
2019-07-30 03:00:00 22.6 3 Norte 5 Noroeste 0 -- -- 91
2019-07-30 02:00:00 22.8 3 Noroeste 8 Este 0 -- -- 90
2019-07-30 01:00:00 23 2 Este 8 Sudeste 0 -- -- 88
2019-07-30 00:00:00 23.3 2 Sudeste 14 Sudoeste 0 -- -- 89
2019-07-29 23:00:00 23.8 5 Sur 15 Sudoeste 0 -- -- 89
2019-07-29 22:00:00 24.5 2 Sur 9 Sur 0 -- -- 83
2019-07-29 21:00:00 25.9 4 Sur 21 Sudoeste 0 -- -- 71
2019-07-29 20:00:00 28.1 5 Sur 19 Sur 0 -- -- 60
2019-07-29 19:00:00 28.9 8 Sur 21 Sudoeste 0 -- -- 63
2019-07-29 18:00:00 29.6 7 Sur 22 Sudoeste 0 -- -- 60
2019-07-29 17:00:00 29.5 9 Sur 21 Sudoeste 0 -- -- 60
2019-07-29 16:00:00 29.5 9 Sur 28 Sudoeste 0 -- -- 59
2019-07-29 15:00:00 29.7 9 Sur 25 Sudoeste 0 -- -- 53
2019-07-29 14:00:00 29.6 10 Sur 24 Sudoeste 0 -- -- 49
2019-07-29 13:00:00 28.9 9 Sur 27 Sudoeste 0 -- -- 49
2019-07-29 12:00:00 28.2 9 Sudoeste 16 Sur 0 -- -- 50
2019-07-29 11:00:00 26.2 5 Sudoeste 13 Sudoeste 0 -- -- 64
2019-07-29 10:00:00 23.2 3 Noroeste 8 Sudeste 0 -- -- 73
2019-07-29 09:00:00 20.1 3 Este 8 Sudeste 0 -- -- 80
2019-07-29 08:00:00 17.9 0 Calma 8 Norte 0 -- -- 88
2019-07-29 07:00:00 16.8 0 Calma 5 Este 0 -- -- 92
2019-07-29 06:00:00 16.8 0 Calma 2 Noroeste 0 -- -- 92
2019-07-29 05:00:00 17 0 Calma 3 Norte 0 -- -- 90
2019-07-29 04:00:00 17.4 0 Calma 2 Nordeste 0 -- -- 90
2019-07-29 03:00:00 17.9 0 Calma 7 Norte 0 -- -- 88
2019-07-29 02:00:00 18.5 4 Norte 9 Norte 0 -- -- 87
2019-07-29 01:00:00 19.2 4 Noroeste 7 Noroeste 0 -- -- 86
2019-07-29 00:00:00 20.4 0 Calma 4 Noroeste 0 -- -- 81
2019-07-28 23:00:00 21.6 2 Norte 6 Este 0 -- -- 76
2019-07-28 22:00:00 22.5 0 Calma 13 Sudoeste 0 -- -- 71
2019-07-28 21:00:00 23.6 12 Sudoeste 26 Sudoeste 0 -- -- 64
2019-07-28 20:00:00 25.8 6 Sur 25 Sudoeste 0 -- -- 57
2019-07-28 19:00:00 27.6 8 Sur 27 Sudeste 0 -- -- 46
2019-07-28 18:00:00 28.8 8 Sudeste 23 Este 0 -- -- 36
2019-07-28 17:00:00 29.8 9 Sudeste 23 Sudeste 0 -- -- 37
2019-07-28 16:00:00 30.4 6 Sudeste 19 Sudoeste 0 -- -- 35
2019-07-28 15:00:00 29.7 6 Sudoeste 18 Sudoeste 0 -- -- 30
2019-07-28 14:00:00 28.9 5 Nordeste 17 Este 0 -- -- 32
2019-07-28 13:00:00 27.2 6 Nordeste 12 Norte 0 -- -- 34
2019-07-28 12:00:00 25.6 7 Norte 19 Norte 0 -- -- 41
2019-07-28 11:00:00 23.9 7 Oeste 22 Sudoeste 0 -- -- 46
2019-07-28 10:00:00 21.6 6 Oeste 16 Sudoeste 0 -- -- 56
2019-07-28 09:00:00 19.3 3 Oeste 14 Oeste 0 -- -- 62
2019-07-28 08:00:00 17.5 0 Calma 11 Norte 0 -- -- 67
2019-07-28 07:00:00 17.4 4 Norte 22 Norte 0 -- -- 68
2019-07-28 06:00:00 18.2 3 Noroeste 19 Oeste 0 -- -- 63
2019-07-28 05:00:00 18.6 7 Sudoeste 12 Oeste 0 -- -- 63
2019-07-28 04:00:00 18.4 2 Sudoeste 11 Oeste 0 -- -- 69
2019-07-28 03:00:00 19.6 4 Noroeste 11 Noroeste 0 -- -- 64
2019-07-28 02:00:00 20.5 4 Sur 18 Sudoeste 0 -- -- 60
2019-07-28 01:00:00 21.6 3 Sur 18 Norte 0 -- -- 56
2019-07-28 00:00:00 22.1 4 Sudeste 25 Oeste 0 -- -- 55
2019-07-27 23:00:00 22.8 9 Sudoeste 17 Sudoeste 0 -- -- 59
2019-07-26 12:00:00 -- -- -- -- -- -- -- -- --
2019-07-26 11:00:00 29.1 4 Noroeste 8 Noroeste 0 -- -- 46
2019-07-26 10:00:00 26.3 5 Norte 13 Nordeste 0 -- -- 57
2019-07-26 09:00:00 23.9 5 Norte 12 Nordeste 0 -- -- 68
2019-07-26 08:00:00 21.7 4 Norte 9 Norte 0 -- -- 80
2019-07-26 07:00:00 20.6 0 Calma 3 Noroeste 0 -- -- 82
2019-07-26 06:00:00 20.9 0 Calma 4 Noroeste 0 -- -- 74
2019-07-26 05:00:00 21.1 0 Calma 3 Norte 0 -- -- 73
2019-07-26 04:00:00 21.6 0 Calma 6 Noroeste 0 -- -- 72
2019-07-26 03:00:00 21.5 0 Calma 5 Noroeste 0 -- -- 78
2019-07-26 02:00:00 21.6 0 Calma 4 Noroeste 0 -- -- 80
2019-07-26 01:00:00 22.6 0 Calma 3 Noroeste 0 -- -- 82
2019-07-26 00:00:00 23.6 0 Calma 5 Norte 0 -- -- 80
2019-07-25 23:00:00 24.6 2 Norte 5 Este 0 -- -- 73
2019-07-25 22:00:00 26.2 2 Sudeste 6 Sudeste 0 -- -- 68
2019-07-25 21:00:00 28 2 Sudeste 14 Sur 0 -- -- 62
2019-07-25 20:00:00 30 5 Sur 21 Sudoeste 0 -- -- 51
2019-07-25 19:00:00 31.1 13 Sudoeste 22 Sur 0 -- -- 48
2019-07-25 18:00:00 32.5 6 Sur 15 Sur 0 -- -- 46
2019-07-25 17:00:00 33.1 8 Sudeste 24 Sudeste 0 -- -- 44
2019-07-25 16:00:00 33.2 6 Sudeste 21 Sur 0 -- -- 44
2019-07-25 15:00:00 33.8 7 Sur 18 Sur 0 -- -- 41
2019-07-25 14:00:00 33.4 8 Sur 21 Sur 0 -- -- 39
2019-07-25 13:00:00 33.2 8 Sur 18 Sudoeste 0 -- -- 39
2019-07-25 12:00:00 31.6 8 Sur 17 Sudoeste 0 -- -- 47
2019-07-25 11:00:00 29.4 4 Oeste 12 Sudoeste 0 -- -- 47
2019-07-25 10:00:00 26.2 3 Norte 8 Nordeste 0 -- -- 54
2019-07-25 09:00:00 23 3 Norte 5 Nordeste 0 -- -- 61
2019-07-25 08:00:00 19.1 0 Calma 3 Norte 0 -- -- 78
2019-07-25 07:00:00 18.2 0 Calma 5 Nordeste 0 -- -- 77
2019-07-25 06:00:00 18.2 0 Calma 3 Norte 0 -- -- 75
2019-07-25 05:00:00 18.9 2 Noroeste 4 Noroeste 0 -- -- 77
2019-07-25 04:00:00 19.7 0 Calma 2 Sudoeste 0 -- -- 80
2019-07-25 03:00:00 20.4 0 Calma 5 Noroeste 0 -- -- 77
2019-07-25 02:00:00 21.4 0 Calma 4 Noroeste 0 -- -- 79
2019-07-25 01:00:00 22.5 0 Calma 3 Noroeste 0 -- -- 83
2019-07-25 00:00:00 23.6 0 Calma 5 Oeste 0 -- -- 81
2019-07-24 23:00:00 24.9 0 Calma 8 Este 0 -- -- 78
2019-07-24 22:00:00 26.2 3 Sudeste 10 Sudeste 0 -- -- 72
2019-07-24 21:00:00 28.4 2 Sur 13 Sudoeste 0 -- -- 52
2019-07-24 20:00:00 30.6 8 Sudoeste 19 Sudoeste 0 -- -- 42
2019-07-24 19:00:00 32.3 6 Sur 18 Sudoeste 0 -- -- 37
2019-07-24 18:00:00 33.5 5 Sur 19 Sudeste 0 -- -- 35
2019-07-24 17:00:00 34.1 8 Sur 23 Sudoeste 0 -- -- 36
2019-07-24 16:00:00 34.2 8 Sur 22 Sudoeste 0 -- -- 36
2019-07-24 15:00:00 34.5 7 Sur 24 Sudoeste 0 -- -- 36
2019-07-24 14:00:00 33.8 11 Sudoeste 21 Sudoeste 0 -- -- 35
2019-07-24 13:00:00 33.3 8 Sur 18 Sur 0 -- -- 39
2019-07-24 12:00:00 31.2 5 Sudoeste 12 Sudoeste 0 -- -- 41
2019-07-24 11:00:00 28.7 4 Norte 11 Noroeste 0 -- -- 47
2019-07-24 10:00:00 26.2 5 Norte 11 Norte 0 -- -- 59
2019-07-24 09:00:00 22.8 4 Norte 10 Nordeste 0 -- -- 68
2019-07-24 08:00:00 20 0 Calma 5 Norte 0 -- -- 70
2019-07-24 07:00:00 18.9 0 Calma 6 Norte 0 -- -- 66
2019-07-24 06:00:00 18.3 0 Calma 5 Norte 0 -- -- 67
2019-07-24 05:00:00 18.3 2 Norte 5 Norte 0 -- -- 61
2019-07-24 04:00:00 19 0 Calma 2 Norte 0 -- -- 65
2019-07-24 03:00:00 19.8 0 Calma 3 Noroeste 0 -- -- 61
2019-07-24 02:00:00 21 0 Calma 5 Noroeste 0 -- -- 61
2019-07-24 01:00:00 22.2 0 Calma 4 Nordeste 0 -- -- 63
2019-07-24 00:00:00 23.8 0 Calma 5 Nordeste 0 -- -- 61
2019-07-23 23:00:00 25.8 0 Calma 4 Sur 0 -- -- 50
2019-07-23 22:00:00 27.9 3 Sur 6 Sur 0 -- -- 42
2019-07-23 21:00:00 30 5 Sur 18 Sudoeste 0 -- -- 42
2019-07-23 20:00:00 32 8 Sur 21 Sur 0 -- -- 38
2019-07-23 19:00:00 33.1 11 Sur 26 Sudoeste 0 -- -- 35
2019-07-23 18:00:00 33.8 10 Sur 29 Sudoeste 0 -- -- 36
2019-07-23 17:00:00 33.3 13 Sur 26 Sudoeste 0 -- -- 40
2019-07-23 16:00:00 34 14 Sur 30 Sudoeste 0 -- -- 35
2019-07-23 15:00:00 35.3 13 Sur 26 Sudoeste 0 -- -- 28
2019-07-23 14:00:00 34.7 10 Sur 31 Sudoeste 0 -- -- 32
2019-07-23 13:00:00 34.2 13 Sudoeste 24 Sudoeste 0 -- -- 28
2019-07-23 12:00:00 33.4 8 Sur 17 Sudoeste 0 -- -- 37
2019-07-23 11:00:00 31 8 Sur 18 Sudoeste 0 -- -- 39
2019-07-23 10:00:00 27.9 6 Sur 14 Sudoeste 0 -- -- 45
2019-07-23 09:00:00 22.6 0 Calma 4 Oeste 0 -- -- 61
2019-07-23 08:00:00 18.8 0 Calma 5 Norte 0 -- -- 68
2019-07-23 07:00:00 17.8 0 Calma 4 Norte 0 -- -- 72
2019-07-23 06:00:00 18.4 0 Calma 5 Norte 0 -- -- 70
2019-07-23 05:00:00 19.1 2 Norte 5 Norte 0 -- -- 68
2019-07-23 04:00:00 19.7 2 Norte 4 Norte 0 -- -- 69
2019-07-23 03:00:00 20.7 0 Calma 5 Norte 0 -- -- 76
2019-07-23 02:00:00 21.4 2 Sudoeste 6 Sudoeste 0 -- -- 75
2019-07-23 01:00:00 22.4 2 Norte 5 Noroeste 0 -- -- 71
2019-07-23 00:00:00 23.8 3 Norte 6 Noroeste 0 -- -- 69
2019-07-22 23:00:00 25.4 2 Sur 7 Sudoeste 0 -- -- 63
2019-07-22 22:00:00 27.3 4 Sudoeste 8 Sur 0 -- -- 51
2019-07-22 21:00:00 29.4 4 Sur 17 Sudoeste 0 -- -- 48
2019-07-22 20:00:00 31.4 8 Sur 23 Sudoeste 0 -- -- 40
2019-07-22 19:00:00 32.3 13 Sudoeste 23 Sur 0 -- -- 34
2019-07-22 18:00:00 33 12 Sur 28 Sudoeste 0 -- -- 34
2019-07-22 17:00:00 34.3 13 Sudoeste 25 Sudoeste 0 -- -- 33
2019-07-22 16:00:00 34.1 11 Sudoeste 27 Sudoeste 0 -- -- 34
2019-07-22 15:00:00 33.7 14 Sudoeste 25 Sudoeste 0 -- -- 34
2019-07-22 14:00:00 34.2 10 Sur 25 Sudoeste 0 -- -- 36
2019-07-22 13:00:00 33.6 9 Sudoeste 21 Sudoeste 0 -- -- 36
2019-07-22 12:00:00 32.9 8 Sudoeste 18 Sudoeste 0 -- -- 41
2019-07-22 11:00:00 30.3 5 Oeste 11 Sudoeste 0 -- -- 39
2019-07-22 10:00:00 27 3 Nordeste 8 Nordeste 0 -- -- 50
2019-07-22 09:00:00 23.6 3 Norte 6 Norte 0 -- -- 61
2019-07-22 08:00:00 19.3 0 Calma 5 Noroeste 0 -- -- 74
2019-07-22 07:00:00 18.3 0 Calma 3 Norte 0 -- -- 75
2019-07-22 06:00:00 18.8 0 Calma 4 Norte 0 -- -- 77
2019-07-22 05:00:00 19 0 Calma 3 Norte 0 -- -- 77
2019-07-22 04:00:00 19.9 0 Calma 4 Este 0 -- -- 73
2019-07-22 03:00:00 20.1 0 Calma 7 Norte 0 -- -- 71
2019-07-22 02:00:00 20.8 0 Calma 3 Noroeste 0 -- -- 74
2019-07-22 01:00:00 21.9 0 Calma 4 Noroeste 0 -- -- 70
2019-07-22 00:00:00 23 0 Calma 4 Noroeste 0 -- -- 75